Time;durP1;ratioP1;P1;durP2;ratioP2;P2;SDS_P1;SDS_P2;PMS_P1;PMS_P2;Temp;Humidity;BMP_temperature;BMP_pressure;BME280_temperature;BME280_humidity;BME280_pressure;Samples;Min_cycle;Max_cycle;Signal;HPM_P1;HPM_P2
2023/08/30 00:01:14;;;;;;;14.00;12.60;;;;;;;-143.84;100.00;45010.97;5112715;28;21263;-59
2023/08/30 00:03:41;;;;;;;17.03;14.30;;;;;;;-143.84;100.00;45007.19;5112518;28;20800;-59
2023/08/30 00:06:08;;;;;;;19.00;12.60;;;;;;;-143.84;99.77;44990.03;5112443;28;20492;-59
2023/08/30 00:08:36;;;;;;;13.23;11.57;;;;;;;-143.84;99.43;44988.13;5112767;28;20757;-59
2023/08/30 00:11:04;;;;;;;19.77;13.67;;;;;;;-143.84;99.29;45005.28;5112558;28;20435;-59
2023/08/30 00:13:32;;;;;;;18.63;13.07;;;;;;;-143.84;99.43;44999.56;5112193;28;21003;-59
2023/08/30 00:15:59;;;;;;;15.50;12.57;;;;;;;-143.84;99.30;44980.53;5112540;28;20451;-59
2023/08/30 00:18:28;;;;;;;16.63;12.10;;;;;;;-143.84;99.27;44984.31;5112102;28;20924;-59
2023/08/30 00:20:56;;;;;;;17.40;13.70;;;;;;;-143.84;99.20;45010.97;5112189;28;20434;-59
2023/08/30 00:23:23;;;;;;;17.73;13.67;;;;;;;-143.84;98.97;44988.13;5112164;28;20443;-59
2023/08/30 00:25:51;;;;;;;15.73;12.63;;;;;;;-143.84;99.27;44999.56;5112017;28;20547;-59
2023/08/30 00:28:18;;;;;;;15.60;13.50;;;;;;;-143.84;99.00;45014.78;5111935;28;20808;-59
2023/08/30 00:30:45;;;;;;;16.60;14.27;;;;;;;-143.84;99.33;44999.56;5111674;28;20443;-59
2023/08/30 00:33:12;;;;;;;15.27;13.63;;;;;;;-143.84;99.28;44990.03;5111956;28;20434;-59
2023/08/30 00:35:40;;;;;;;15.97;14.23;;;;;;;-143.84;99.56;44991.94;5112079;28;20475;-59
2023/08/30 00:38:08;;;;;;;19.60;13.87;;;;;;;-143.84;99.72;44997.66;5111872;28;20933;-59
2023/08/30 00:40:40;;;;;;;15.23;13.23;;;;;;;-143.84;99.39;45010.97;5112015;28;20437;-59
2023/08/30 00:43:07;;;;;;;16.93;13.30;;;;;;;-143.84;99.68;45024.31;5111787;28;20474;-59
2023/08/30 00:45:35;;;;;;;20.50;14.13;;;;;;;-143.84;99.51;45018.59;5110930;28;20817;-59
2023/08/30 00:48:04;;;;;;;18.17;14.00;;;;;;;-143.84;99.60;44993.84;5111322;28;20500;-59
2023/08/30 00:50:31;;;;;;;20.07;13.60;;;;;;;-143.84;99.52;45010.97;5111541;28;20435;-59
2023/08/30 00:53:05;;;;;;;15.63;13.00;;;;;;;-143.84;99.38;45010.97;5111584;28;20427;-59
2023/08/30 00:55:32;;;;;;;21.93;13.53;;;;;;;-143.84;99.07;45003.38;5111369;28;20475;-59
2023/08/30 00:58:00;;;;;;;15.33;12.50;;;;;;;-143.84;99.24;44982.41;5111676;28;20766;-59
2023/08/30 01:00:28;;;;;;;24.13;14.43;;;;;;;-143.84;99.15;45020.50;5111317;28;20443;-59
2023/08/30 01:02:55;;;;;;;17.97;12.90;;;;;;;-143.84;99.32;45016.69;5111650;28;20462;-59
2023/08/30 01:05:24;;;;;;;15.57;14.20;;;;;;;-143.84;98.96;45018.59;5111313;28;20503;-59
2023/08/30 01:07:51;;;;;;;21.10;14.00;;;;;;;-143.84;99.56;44997.66;5111713;28;20435;-59
2023/08/30 01:10:27;;;;;;;13.77;12.37;;;;;;;-143.84;99.23;44997.66;5111193;28;20495;-59
2023/08/30 01:13:02;;;;;;;17.70;13.97;;;;;;;-143.84;99.29;45010.97;5111378;28;20435;-59
2023/08/30 01:15:30;;;;;;;16.70;12.97;;;;;;;-143.84;99.26;44991.94;5111243;28;20478;-59
2023/08/30 01:17:58;;;;;;;15.10;13.63;;;;;;;-143.84;99.71;45024.31;5111532;28;20496;-59
2023/08/30 01:20:27;;;;;;;26.00;13.37;;;;;;;-143.84;99.66;45020.50;5110995;28;20435;-59
2023/08/30 01:23:00;;;;;;;20.60;13.90;;;;;;;-143.84;99.40;45014.78;5111098;27;20921;-59
2023/08/30 01:25:39;;;;;;;22.90;13.97;;;;;;;-143.84;99.37;45024.31;5110933;28;20485;-59
2023/08/30 01:28:08;;;;;;;18.97;13.37;;;;;;;-143.84;99.25;44990.03;5111126;28;20966;-59
2023/08/30 01:30:38;;;;;;;14.20;12.80;;;;;;;-143.84;98.97;45003.38;5110863;28;20430;-59
2023/08/30 01:33:06;;;;;;;22.50;13.80;;;;;;;-143.84;99.05;45016.69;5113600;28;20636;-59
2023/08/30 01:35:36;;;;;;;16.20;12.90;;;;;;;-143.84;98.74;44999.56;5131566;27;20902;-59
2023/08/30 01:38:04;;;;;;;13.87;12.47;;;;;;;-143.84;98.93;45012.88;5131095;27;20951;-59
2023/08/30 01:40:36;;;;;;;19.70;12.60;;;;;;;-143.84;98.60;44999.56;5131530;27;20433;-59
2023/08/30 01:43:07;;;;;;;26.43;12.60;;;;;;;-143.84;98.79;45024.31;5131660;27;20442;-59
2023/08/30 01:45:37;;;;;;;13.63;11.10;;;;;;;-143.84;98.68;45005.28;5131441;27;20470;-59
2023/08/30 01:48:07;;;;;;;26.83;12.77;;;;;;;-143.84;98.22;44999.56;5131380;27;20510;-59
2023/08/30 01:50:35;;;;;;;16.90;11.93;;;;;;;-143.84;98.38;45018.59;5131243;27;20430;-59
2023/08/30 01:53:03;;;;;;;22.67;11.97;;;;;;;-143.84;98.32;45010.97;5131398;27;20430;-59
2023/08/30 01:55:33;;;;;;;13.67;11.87;;;;;;;-143.84;98.24;45018.59;5132355;27;20526;-59
2023/08/30 01:58:00;;;;;;;16.33;12.03;;;;;;;-143.84;98.49;45030.03;5135443;27;20490;-59
2023/08/30 02:00:27;;;;;;;17.77;12.30;;;;;;;-143.84;97.97;44993.84;5135455;27;20772;-59
2023/08/30 02:02:56;;;;;;;17.80;11.60;;;;;;;-143.84;97.92;45020.50;5135351;27;20459;-59
2023/08/30 02:05:23;;;;;;;15.23;13.17;;;;;;;-143.84;98.24;45020.50;5135427;27;20442;-59
2023/08/30 02:07:56;;;;;;;14.70;13.20;;;;;;;-143.84;98.26;45007.19;5135186;27;20509;-59
2023/08/30 02:10:28;;;;;;;16.63;12.10;;;;;;;-143.84;97.62;45028.13;5134752;27;20434;-58
2023/08/30 02:12:58;;;;;;;13.53;12.10;;;;;;;-143.84;96.82;45031.94;5133777;27;20426;-58
2023/08/30 02:15:26;;;;;;;13.40;12.07;;;;;;;-143.84;96.44;45016.69;5133753;27;20473;-58
2023/08/30 02:17:56;;;;;;;14.93;13.00;;;;;;;-143.84;96.41;45007.19;5133875;27;20999;-58
2023/08/30 02:20:23;;;;;;;16.20;12.30;;;;;;;-143.84;96.61;45045.25;5133389;27;20438;-58
2023/08/30 02:22:51;;;;;;;12.63;11.33;;;;;;;-143.84;96.74;45016.69;5133613;27;20425;-58
2023/08/30 02:25:18;;;;;;;15.17;10.50;;;;;;;-143.84;96.61;45031.94;5133117;27;20485;-58
2023/08/30 02:27:45;;;;;;;11.77;10.60;;;;;;;-143.84;96.57;45012.88;5133420;27;20433;-58
2023/08/30 02:30:13;;;;;;;20.23;11.83;;;;;;;-143.84;96.27;45001.47;5133916;27;20430;-58
2023/08/30 02:32:40;;;;;;;15.47;11.13;;;;;;;-143.84;95.82;45018.59;5133402;27;20432;-58
2023/08/30 02:35:09;;;;;;;20.43;12.17;;;;;;;-143.84;95.76;45024.31;5133237;27;20474;-58
2023/08/30 02:37:36;;;;;;;14.33;11.40;;;;;;;-143.84;96.24;45012.88;5133354;27;20429;-58
2023/08/30 02:40:04;;;;;;;12.63;11.33;;;;;;;-143.84;96.36;44990.03;5133359;27;20515;-58
2023/08/30 02:42:31;;;;;;;16.63;11.80;;;;;;;-143.84;96.10;45054.78;5132941;27;20527;-58
2023/08/30 02:44:58;;;;;;;12.80;11.60;;;;;;;-143.84;96.53;45026.22;5133473;27;20433;-58
2023/08/30 02:47:25;;;;;;;13.50;11.90;;;;;;;-143.84;96.40;45022.41;5133134;27;20426;-60
2023/08/30 02:49:52;;;;;;;14.43;12.13;;;;;;;-143.84;96.47;45033.84;5133082;27;21042;-58
2023/08/30 02:52:21;;;;;;;14.63;12.97;;;;;;;-143.84;96.85;45024.31;5133029;27;20899;-58
2023/08/30 02:54:48;;;;;;;18.27;11.67;;;;;;;-143.84;96.75;45026.22;5132971;27;20484;-58
2023/08/30 02:57:15;;;;;;;13.30;12.07;;;;;;;-143.84;96.63;45028.13;5132798;27;21182;-58
2023/08/30 02:59:42;;;;;;;13.83;12.27;;;;;;;-143.84;96.37;45014.78;5133248;27;20438;-58
2023/08/30 03:02:09;;;;;;;15.57;11.70;;;;;;;-143.84;96.31;45022.41;5132966;27;21059;-58
2023/08/30 03:04:38;;;;;;;14.80;12.37;;;;;;;-143.84;96.19;45049.06;5133050;27;20495;-58
2023/08/30 03:07:05;;;;;;;21.97;13.40;;;;;;;-143.84;96.45;45014.78;5131399;27;20438;-58
2023/08/30 03:09:34;;;;;;;12.63;11.63;;;;;;;-143.84;96.53;45033.84;5132534;27;20455;-58
2023/08/30 03:12:01;;;;;;;13.77;12.07;;;;;;;-143.84;96.49;45018.59;5132784;27;21134;-58
2023/08/30 03:14:28;;;;;;;14.57;12.83;;;;;;;-143.84;96.42;45028.13;5132672;27;20542;-58
2023/08/30 03:16:55;;;;;;;15.60;11.80;;;;;;;-143.84;96.46;45039.53;5132340;27;20441;-58
2023/08/30 03:19:22;;;;;;;15.80;12.67;;;;;;;-143.84;96.72;45005.28;5132287;27;20518;-58
2023/08/30 03:21:49;;;;;;;14.87;13.33;;;;;;;-143.84;96.78;45030.03;5132669;27;20430;-58
2023/08/30 03:24:17;;;;;;;14.20;12.60;;;;;;;-143.84;97.11;45030.03;5132291;27;20929;-58
2023/08/30 03:26:45;;;;;;;18.87;12.90;;;;;;;-143.84;97.22;45043.34;5132035;27;20478;-58
2023/08/30 03:29:13;;;;;;;19.67;14.00;;;;;;;-143.84;97.55;45060.50;5132176;27;20495;-58
2023/08/30 03:31:40;;;;;;;16.97;13.30;;;;;;;-143.84;97.64;45035.75;5132190;27;21004;-58
2023/08/30 03:34:07;;;;;;;13.90;12.33;;;;;;;-143.84;97.50;45045.25;5132276;27;20430;-58
2023/08/30 03:36:34;;;;;;;22.00;13.10;;;;;;;-143.84;97.42;45056.69;5132052;27;20488;-58
2023/08/30 03:39:02;;;;;;;16.13;14.27;;;;;;;-143.84;97.72;45050.97;5131970;27;20438;-58
2023/08/30 03:41:29;;;;;;;19.17;14.47;;;;;;;-143.84;97.60;45022.41;5131816;27;20442;-58
2023/08/30 03:43:58;;;;;;;23.83;15.50;;;;;;;-143.84;97.93;45060.50;5129094;27;20775;-59
2023/08/30 03:46:25;;;;;;;16.33;14.47;;;;;;;-143.84;98.16;45058.59;5133723;27;20490;-59
2023/08/30 03:48:52;;;;;;;15.27;13.70;;;;;;;-143.84;98.09;45014.78;5133188;27;20434;-59
2023/08/30 03:51:20;;;;;;;17.07;15.20;;;;;;;-143.84;98.53;44999.56;5133208;27;20513;-59
2023/08/30 03:53:47;;;;;;;19.90;13.63;;;;;;;-143.84;98.34;45041.44;5133317;27;20533;-59
2023/08/30 03:56:14;;;;;;;25.07;14.80;;;;;;;-143.84;98.26;45024.31;5133070;27;21035;-59
2023/08/30 03:58:41;;;;;;;18.53;14.00;;;;;;;-143.84;98.90;45031.94;5132288;27;20868;-59
2023/08/30 04:01:09;;;;;;;20.87;14.47;;;;;;;-143.84;99.05;45064.31;5132450;27;20487;-59
2023/08/30 04:03:36;;;;;;;17.30;14.77;;;;;;;-143.84;99.30;45050.97;5130920;27;21001;-58
2023/08/30 04:06:04;;;;;;;20.30;14.13;;;;;;;-143.84;99.32;45045.25;5131482;27;20442;-58
2023/08/30 04:08:31;;;;;;;25.90;15.80;;;;;;;-143.84;99.39;45037.66;5131478;27;20936;-58
2023/08/30 04:10:58;;;;;;;24.07;14.97;;;;;;;-143.84;99.36;45052.88;5130825;27;20430;-58
2023/08/30 04:13:25;;;;;;;16.43;13.90;;;;;;;-143.84;99.42;45045.25;5131490;27;20519;-58
2023/08/30 04:15:53;;;;;;;16.53;14.80;;;;;;;-143.84;99.68;45007.19;5131608;27;20478;-58
2023/08/30 04:18:21;;;;;;;24.33;15.70;;;;;;;-143.84;99.53;45047.16;5130955;27;20467;-58
2023/08/30 04:20:48;;;;;;;20.37;15.33;;;;;;;-143.84;100.00;45003.38;5131370;27;20470;-58
2023/08/30 04:23:16;;;;;;;19.27;14.90;;;;;;;-143.84;100.00;45018.59;5131532;27;20438;-58
2023/08/30 04:25:43;;;;;;;19.87;15.40;;;;;;;-143.84;100.00;45018.59;5131185;27;20833;-58
2023/08/30 04:28:10;;;;;;;26.73;16.80;;;;;;;-143.84;100.00;45020.50;5131511;27;20454;-58
2023/08/30 04:30:38;;;;;;;28.30;14.97;;;;;;;-143.84;100.00;45043.34;5131243;27;21003;-58
2023/08/30 04:33:06;;;;;;;22.07;15.47;;;;;;;-143.84;100.00;45030.03;5131112;27;20903;-58
2023/08/30 04:35:36;;;;;;;18.30;15.00;;;;;;;-143.84;100.00;45026.22;5131151;27;20991;-58
2023/08/30 04:38:04;;;;;;;17.90;14.57;;;;;;;-143.84;100.00;45024.31;5131302;27;20446;-58
2023/08/30 04:40:32;;;;;;;19.20;13.90;;;;;;;-143.84;100.00;45005.28;5131450;27;21267;-58
2023/08/30 04:42:59;;;;;;;22.10;13.80;;;;;;;-143.84;100.00;45030.03;5131064;27;20943;-58
2023/08/30 04:45:27;;;;;;;25.53;15.67;;;;;;;-143.84;100.00;45056.69;5130896;27;20430;-58
2023/08/30 04:47:54;;;;;;;18.67;13.83;;;;;;;-143.84;100.00;45014.78;5131142;27;20529;-58
2023/08/30 04:50:22;;;;;;;15.10;12.57;;;;;;;-143.84;100.00;45030.03;5131025;27;20442;-58
2023/08/30 04:52:50;;;;;;;14.73;11.70;;;;;;;-143.84;99.36;45016.69;5130820;27;20928;-58
2023/08/30 04:55:17;;;;;;;15.87;10.60;;;;;;;-143.84;98.74;45007.19;5130840;27;20481;-58
2023/08/30 04:57:45;;;;;;;17.67;9.60;;;;;;;-143.84;97.96;45035.75;5131020;27;20434;-58
2023/08/30 05:00:13;;;;;;;13.00;9.80;;;;;;;-143.84;97.11;45022.41;5130673;27;20430;-57
2023/08/30 05:02:43;;;;;;;16.97;9.73;;;;;;;-143.84;96.47;44997.66;5130582;27;20454;-58
2023/08/30 05:05:10;;;;;;;23.87;9.47;;;;;;;-143.84;95.73;44991.94;5130544;27;20852;-58
2023/08/30 05:07:37;;;;;;;20.53;8.00;;;;;;;-143.84;94.45;44999.56;5130342;27;20940;-58
2023/08/30 05:10:07;;;;;;;21.50;9.60;;;;;;;-143.84;92.14;45026.22;5130485;27;20495;-58
2023/08/30 05:12:35;;;;;;;19.50;7.90;;;;;;;-143.84;91.34;45012.88;5130454;27;20475;-58
2023/08/30 05:15:03;;;;;;;18.30;8.03;;;;;;;-143.84;91.09;44993.84;5130804;27;20499;-58
2023/08/30 05:17:31;;;;;;;20.83;7.80;;;;;;;-143.84;89.33;45007.19;5130370;27;20953;-58
2023/08/30 05:19:58;;;;;;;13.53;8.10;;;;;;;-143.84;88.02;44995.75;5130365;27;20795;-58
2023/08/30 05:22:25;;;;;;;12.83;8.57;;;;;;;-143.84;87.53;44991.94;5112941;27;20438;-58
2023/08/30 05:24:52;;;;;;;19.07;8.87;;;;;;;-143.84;87.32;44995.75;5109747;28;20479;-58
2023/08/30 05:27:20;;;;;;;19.33;9.37;;;;;;;-143.84;87.52;45009.09;5110056;28;20496;-58
2023/08/30 05:29:47;;;;;;;13.40;8.60;;;;;;;-143.84;86.74;44988.13;5109279;28;20504;-58
2023/08/30 05:32:15;;;;;;;9.20;7.90;;;;;;;-143.84;86.92;44990.03;5109467;28;20442;-58
2023/08/30 05:34:42;;;;;;;9.70;8.40;;;;;;;-143.84;87.48;45014.78;5109610;28;20438;-58
2023/08/30 05:37:09;;;;;;;9.20;8.33;;;;;;;-143.84;86.76;44951.97;5109547;28;21080;-58
2023/08/30 05:39:36;;;;;;;25.13;8.90;;;;;;;-143.84;84.73;44986.22;5109488;28;20427;-58
2023/08/30 05:42:03;;;;;;;12.73;7.70;;;;;;;-143.84;83.83;44951.97;5109801;28;20944;-57
2023/08/30 05:44:32;;;;;;;20.03;8.33;;;;;;;-143.84;82.52;44971.00;5109662;28;20818;-58
2023/08/30 05:46:59;;;;;;;14.33;8.50;;;;;;;-143.84;80.46;44950.06;5109581;28;20917;-58
2023/08/30 05:49:26;;;;;;;12.00;8.30;;;;;;;-143.84;79.36;44976.72;5109410;28;20434;-58
2023/08/30 05:51:54;;;;;;;19.33;8.83;;;;;;;-143.84;78.36;44963.38;5109399;28;20434;-58
2023/08/30 05:54:21;;;;;;;11.30;8.50;;;;;;;-143.84;78.57;44934.81;5109372;28;20500;-57
2023/08/30 05:56:48;;;;;;;12.43;8.43;;;;;;;-143.84;78.65;44969.09;5109498;28;21220;-58
2023/08/30 05:59:15;;;;;;;22.83;9.10;;;;;;;-143.84;78.60;44931.00;5109744;28;20808;-58
2023/08/30 06:01:44;;;;;;;12.67;7.97;;;;;;;-143.84;78.45;44963.38;5109666;28;21222;-58
2023/08/30 06:04:12;;;;;;;19.43;8.80;;;;;;;-143.84;78.49;44921.50;5109610;28;20435;-58
2023/08/30 06:06:39;;;;;;;14.97;8.30;;;;;;;-143.84;78.77;44957.66;5109309;28;20431;-58
2023/08/30 06:09:06;;;;;;;13.00;8.83;;;;;;;-143.84;76.55;44946.25;5109604;28;20431;-58
2023/08/30 06:11:34;;;;;;;14.03;8.70;;;;;;;-143.84;75.88;44942.44;5109315;28;20495;-58
2023/08/30 06:14:01;;;;;;;18.77;8.67;;;;;;;-143.84;75.81;44961.47;5109439;28;20435;-58
2023/08/30 06:16:28;;;;;;;11.43;8.53;;;;;;;-143.84;76.42;44940.53;5109388;28;20906;-57
2023/08/30 06:18:58;;;;;;;13.80;8.60;;;;;;;-143.84;76.75;44940.53;5109270;28;20431;-57
2023/08/30 06:21:25;;;;;;;13.63;8.47;;;;;;;-143.84;76.15;44951.97;5108898;28;20496;-58
2023/08/30 06:23:53;;;;;;;27.73;9.00;;;;;;;-143.84;75.69;44971.00;5109094;28;20546;-58
2023/08/30 06:26:20;;;;;;;12.20;9.00;;;;;;;-143.84;75.38;44961.47;5108931;28;20568;-58
2023/08/30 06:28:47;;;;;;;18.03;9.03;;;;;;;-143.84;75.29;44953.88;5109018;28;20442;-57
2023/08/30 06:31:14;;;;;;;13.20;9.03;;;;;;;-143.84;74.58;44948.16;5108909;28;20439;-58
2023/08/30 06:33:42;;;;;;;12.87;9.90;;;;;;;-143.84;75.70;44942.44;5108866;28;20915;-57
2023/08/30 06:36:11;;;;;;;21.10;9.30;;;;;;;-143.84;76.52;44955.75;5108680;28;20984;-58
2023/08/30 06:38:38;;;;;;;20.77;9.23;;;;;;;-143.84;77.04;44967.19;5109170;28;20479;-58
2023/08/30 06:41:05;;;;;;;24.57;8.63;;;;;;;-143.84;76.28;44951.97;5109451;28;20431;-57
2023/08/30 06:43:33;;;;;;;13.80;9.13;;;;;;;-143.84;73.83;44931.00;5112765;28;21029;-57
2023/08/30 06:46:00;;;;;;;10.13;8.63;;;;;;;-143.84;73.31;44927.19;5112653;27;20449;-58
2023/08/30 06:48:27;;;;;;;13.13;8.40;;;;;;;-143.84;69.66;44921.50;5112609;28;20469;-57
2023/08/30 06:50:58;;;;;;;18.03;8.47;;;;;;;-143.84;69.21;44925.31;5112609;28;20435;-58
2023/08/30 06:53:27;;;;;;;16.37;9.03;;;;;;;-143.84;68.70;44963.38;5112352;28;20909;-57
2023/08/30 06:55:58;;;;;;;12.83;8.07;;;;;;;-143.84;68.89;44932.91;5112456;28;20474;-57
2023/08/30 06:58:26;;;;;;;11.53;8.23;;;;;;;-143.84;69.31;44942.44;5112533;28;20438;-57
2023/08/30 07:00:53;;;;;;;17.27;8.27;;;;;;;-143.84;70.14;44932.91;5112287;28;20515;-57
2023/08/30 07:03:20;;;;;;;13.43;7.77;;;;;;;-143.84;69.78;44953.88;5112127;27;21009;-57
2023/08/30 07:05:48;;;;;;;16.20;8.43;;;;;;;-143.84;69.52;44936.72;5112239;28;20439;-57
2023/08/30 07:08:15;;;;;;;14.90;7.73;;;;;;;-143.84;69.70;44971.00;5112002;28;21024;-57
2023/08/30 07:10:44;;;;;;;19.30;7.33;;;;;;;-143.84;71.35;44955.75;5112347;28;20439;-58
2023/08/30 07:13:12;;;;;;;16.27;8.40;;;;;;;-143.84;72.12;44953.88;5112102;28;20477;-58
2023/08/30 07:15:40;;;;;;;19.30;8.67;;;;;;;-143.84;71.51;44957.66;5111939;28;20542;-58
2023/08/30 07:18:08;;;;;;;11.40;7.77;;;;;;;-143.84;70.93;44946.25;5111616;28;20922;-57
2023/08/30 07:20:36;;;;;;;16.83;7.93;;;;;;;-143.84;70.06;44959.56;5111890;28;20472;-57
2023/08/30 07:23:04;;;;;;;17.60;8.00;;;;;;;-143.84;69.38;44925.31;5112132;28;20447;-58
2023/08/30 07:25:32;;;;;;;9.20;7.00;;;;;;;-143.84;68.04;44917.69;5111748;28;20482;-57
2023/08/30 07:28:01;;;;;;;13.90;6.90;;;;;;;-143.84;67.30;44925.31;5111817;28;20435;-57
2023/08/30 07:30:28;;;;;;;18.67;7.90;;;;;;;-143.84;67.24;44910.06;5112176;28;20443;-58
2023/08/30 07:32:55;;;;;;;17.40;7.90;;;;;;;-143.84;67.29;44950.06;5111514;28;20435;-57
2023/08/30 07:35:22;;;;;;;10.43;7.83;;;;;;;-143.84;66.75;44944.34;5111848;28;20431;-57
2023/08/30 07:37:49;;;;;;;18.90;8.60;;;;;;;-143.84;66.07;44919.59;5111670;28;20482;-57
2023/08/30 07:40:16;;;;;;;12.27;8.17;;;;;;;-143.84;64.98;44915.78;5111843;28;20431;-57
2023/08/30 07:42:44;;;;;;;8.40;7.50;;;;;;;-143.84;64.22;44915.78;5111654;28;20431;-59
2023/08/30 07:45:12;;;;;;;16.53;9.70;;;;;;;-143.84;63.79;44917.69;5111382;28;20438;-57
2023/08/30 07:47:39;;;;;;;16.60;10.43;;;;;;;-143.84;63.62;44913.88;5111504;28;20820;-57
2023/08/30 07:50:08;;;;;;;20.60;9.50;;;;;;;-143.84;62.83;44906.25;5111519;27;20492;-58
2023/08/30 07:52:35;;;;;;;18.20;9.50;;;;;;;-143.84;61.95;44910.06;5111391;28;20435;-58
2023/08/30 07:55:03;;;;;;;10.83;7.63;;;;;;;-143.84;61.72;44923.41;5111053;28;20448;-57
2023/08/30 07:57:30;;;;;;;16.40;7.83;;;;;;;-143.84;61.70;44896.75;5111478;28;20930;-58
2023/08/30 07:59:57;;;;;;;16.30;8.73;;;;;;;-143.84;61.41;44902.44;5111400;28;20474;-57
2023/08/30 08:02:26;;;;;;;15.90;8.20;;;;;;;-143.84;61.50;44946.25;5111170;28;20443;-57
2023/08/30 08:04:53;;;;;;;20.27;8.63;;;;;;;-143.84;62.43;44908.16;5111248;28;20826;-58
2023/08/30 08:07:20;;;;;;;13.73;8.20;;;;;;;-143.84;62.34;44931.00;5111033;28;20435;-57
2023/08/30 08:09:47;;;;;;;18.23;7.93;;;;;;;-143.84;62.49;44889.13;5111165;28;20521;-58
2023/08/30 08:12:14;;;;;;;22.33;8.10;;;;;;;-143.84;62.77;44911.97;5111441;28;20466;-57
2023/08/30 08:14:41;;;;;;;13.23;7.23;;;;;;;-143.84;64.31;44906.25;5111076;28;20430;-58
2023/08/30 08:17:08;;;;;;;16.03;7.50;;;;;;;-143.84;63.56;44906.25;5110918;27;20498;-57
2023/08/30 08:19:39;;;;;;;18.10;7.43;;;;;;;-143.84;64.73;44904.34;5111355;28;20447;-57
2023/08/30 08:22:06;;;;;;;19.10;8.33;;;;;;;-143.84;64.56;44902.44;5110628;28;20443;-57
2023/08/30 08:24:34;;;;;;;14.80;7.60;;;;;;;-143.84;64.03;44881.50;5110777;28;20443;-57
2023/08/30 08:27:01;;;;;;;12.43;7.07;;;;;;;-143.84;62.50;44955.75;5110809;28;21266;-57
2023/08/30 08:29:28;;;;;;;13.83;8.00;;;;;;;-143.84;63.00;44894.84;5110790;28;20435;-57
2023/08/30 08:31:56;;;;;;;16.13;7.10;;;;;;;-143.84;63.06;44915.78;5110687;28;20542;-57
2023/08/30 08:34:23;;;;;;;19.40;7.93;;;;;;;-143.84;61.92;44889.13;5110994;28;20431;-57
2023/08/30 08:36:51;;;;;;;15.60;7.90;;;;;;;-143.84;61.87;44891.03;5109638;28;20474;-58
2023/08/30 08:39:18;;;;;;;13.10;7.47;;;;;;;-143.84;60.79;44900.53;5109595;28;20483;-57
2023/08/30 08:41:46;;;;;;;17.00;6.90;;;;;;;-143.84;59.72;44889.13;5109732;28;20821;-57
2023/08/30 08:44:14;;;;;;;13.63;7.30;;;;;;;-143.84;58.91;44902.44;5109749;28;20506;-58
2023/08/30 08:46:42;;;;;;;16.93;8.13;;;;;;;-143.84;59.02;44894.84;5109591;28;20453;-57
2023/08/30 08:49:13;;;;;;;17.40;7.80;;;;;;;-143.84;61.43;44900.53;5109443;28;20430;-57
2023/08/30 08:51:41;;;;;;;13.63;7.13;;;;;;;-143.84;60.11;44892.94;5110191;28;20940;-57
2023/08/30 08:54:10;;;;;;;14.20;7.23;;;;;;;-143.84;59.87;44902.44;5110189;28;20434;-57
2023/08/30 08:56:39;;;;;;;14.00;7.03;;;;;;;-143.84;59.67;44889.13;5110188;27;20474;-58
2023/08/30 08:59:07;;;;;;;14.03;8.00;;;;;;;-143.84;60.77;44894.84;5110124;28;20442;-57
2023/08/30 09:01:35;;;;;;;17.57;7.80;;;;;;;-143.84;61.37;44896.75;5110164;28;20427;-57
2023/08/30 09:04:07;;;;;;;17.90;7.10;;;;;;;-143.84;62.17;44883.41;5109967;28;20439;-57
2023/08/30 09:06:34;;;;;;;14.03;8.00;;;;;;;-143.84;59.27;44877.69;5109341;28;20439;-57
2023/08/30 09:09:03;;;;;;;11.73;7.93;;;;;;;-143.84;58.92;44892.94;5110052;28;20431;-57
2023/08/30 09:11:32;;;;;;;26.20;7.87;;;;;;;-143.84;58.81;44891.03;5110091;28;20439;-57
2023/08/30 09:14:00;;;;;;;13.27;6.80;;;;;;;-143.84;56.45;44898.66;5109940;28;20952;-57
2023/08/30 09:16:27;;;;;;;20.80;6.60;;;;;;;-143.84;56.28;44866.28;5109807;28;20482;-57
2023/08/30 09:19:01;;;;;;;15.07;7.27;;;;;;;-143.84;55.54;44870.09;5109764;27;20929;-57
2023/08/30 09:21:28;;;;;;;7.60;6.80;;;;;;;-143.84;58.59;44904.34;5110194;28;20439;-57
2023/08/30 09:23:59;;;;;;;12.50;6.97;;;;;;;-143.84;56.97;44900.53;5110183;28;20503;-57
2023/08/30 09:26:28;;;;;;;9.87;6.60;;;;;;;-143.84;56.77;44875.78;5109796;28;20984;-57
2023/08/30 09:28:56;;;;;;;20.93;6.70;;;;;;;-143.84;54.20;44896.75;5110034;28;20487;-57
2023/08/30 09:31:24;;;;;;;17.70;7.37;;;;;;;-143.84;55.58;44913.88;5109698;28;20435;-57
2023/08/30 09:33:53;;;;;;;8.90;6.83;;;;;;;-143.84;56.54;44877.69;5109950;28;20429;-57
2023/08/30 09:36:20;;;;;;;13.00;6.97;;;;;;;-143.84;57.20;44892.94;5109483;28;20439;-57
2023/08/30 09:38:51;;;;;;;9.70;7.10;;;;;;;-143.84;54.66;44900.53;5109598;28;20450;-57
2023/08/30 09:41:18;;;;;;;10.63;7.00;;;;;;;-143.84;56.71;44871.97;5109732;28;20473;-57
2023/08/30 09:43:47;;;;;;;13.87;7.30;;;;;;;-143.84;57.09;44891.03;5109641;28;20431;-57
2023/08/30 09:46:17;;;;;;;17.70;6.83;;;;;;;-143.84;58.48;44889.13;5109769;28;20431;-57
2023/08/30 09:48:44;;;;;;;21.67;6.87;;;;;;;-143.84;59.30;44900.53;5109808;28;20453;-57
2023/08/30 09:51:12;;;;;;;14.20;6.50;;;;;;;-143.84;59.88;44883.41;5109778;28;20439;-57
2023/08/30 09:53:45;;;;;;;10.70;6.13;;;;;;;-143.84;58.96;44936.72;5109739;28;20819;-57
2023/08/30 09:56:15;;;;;;;13.87;6.90;;;;;;;-143.84;59.36;44900.53;5109612;28;20434;-57
2023/08/30 09:58:43;;;;;;;13.70;7.00;;;;;;;-143.84;55.12;44902.44;5109552;28;20510;-57
2023/08/30 10:01:11;;;;;;;19.50;6.67;;;;;;;-143.84;56.33;44906.25;5109878;28;20439;-57
2023/08/30 10:03:40;;;;;;;12.40;6.93;;;;;;;-143.84;56.23;44879.59;5109333;28;20435;-57
2023/08/30 10:06:07;;;;;;;9.53;5.97;;;;;;;-143.84;56.07;44904.34;5109537;28;20438;-57
2023/08/30 10:08:36;;;;;;;19.37;7.70;;;;;;;-143.84;56.47;44898.66;5109343;28;20457;-57
2023/08/30 10:11:05;;;;;;;20.73;6.50;;;;;;;-143.84;55.47;44910.06;5109139;28;20975;-57
2023/08/30 10:13:34;;;;;;;9.00;5.83;;;;;;;-143.84;58.40;44862.47;5109319;28;20439;-57
2023/08/30 10:16:05;;;;;;;12.60;7.23;;;;;;;-143.84;57.45;44925.31;5109557;28;20927;-57
2023/08/30 10:18:34;;;;;;;14.53;6.63;;;;;;;-143.84;57.14;44889.13;5113116;28;21017;-57
2023/08/30 10:21:06;;;;;;;14.90;6.23;;;;;;;-143.84;55.66;44887.22;5113334;28;20518;-57
2023/08/30 10:23:35;;;;;;;12.47;5.83;;;;;;;-143.84;56.48;44931.00;5113497;28;20450;-57
2023/08/30 10:26:04;;;;;;;19.13;5.60;;;;;;;-143.84;56.17;44906.25;5112951;28;20486;-57
2023/08/30 10:28:33;;;;;;;12.03;6.40;;;;;;;-143.84;59.94;44894.84;5113017;28;20450;-57
2023/08/30 10:31:00;;;;;;;44.73;6.63;;;;;;;-143.84;58.29;44917.69;5113152;28;21172;-57
2023/08/30 10:33:27;;;;;;;27.90;7.30;;;;;;;-143.84;60.29;44925.31;5113056;27;20439;-57
2023/08/30 10:35:55;;;;;;;15.60;7.83;;;;;;;-143.84;60.48;44919.59;5113397;28;20466;-57
2023/08/30 10:38:28;;;;;;;14.20;7.10;;;;;;;-143.84;60.41;44911.97;5112983;28;20505;-57
2023/08/30 10:40:55;;;;;;;21.70;7.67;;;;;;;-143.84;60.60;44931.00;5113158;28;20450;-57
2023/08/30 10:43:34;;;;;;;18.23;7.40;;;;;;;-143.84;59.36;44911.97;5112995;28;20814;-57
2023/08/30 10:46:07;;;;;;;16.37;7.07;;;;;;;-143.84;60.18;44931.00;5112834;28;20438;-57
2023/08/30 10:48:38;;;;;;;12.60;6.40;;;;;;;-143.84;60.65;44944.34;5112962;28;20478;-57
2023/08/30 10:51:17;;;;;;;13.80;6.60;;;;;;;-143.84;62.94;44915.78;5113165;28;20443;-57
2023/08/30 10:53:56;;;;;;;9.50;6.33;;;;;;;-143.84;63.46;44934.81;5112743;27;20525;-57
2023/08/30 10:56:29;;;;;;;19.23;6.90;;;;;;;-143.84;62.47;44910.06;5112554;28;20846;-57
2023/08/30 10:58:56;;;;;;;14.30;6.40;;;;;;;-143.84;64.10;44919.59;5112790;28;20565;-57
2023/08/30 11:01:24;;;;;;;13.50;6.73;;;;;;;-143.84;62.66;44931.00;5112642;27;20438;-57
2023/08/30 11:03:53;;;;;;;14.90;6.23;;;;;;;-143.84;60.58;44911.97;5112542;28;20473;-57
2023/08/30 11:06:21;;;;;;;28.33;6.27;;;;;;;-143.84;60.73;44908.16;5112581;28;20458;-57
2023/08/30 11:08:50;;;;;;;14.30;6.10;;;;;;;-143.84;61.06;44934.81;5112543;28;20446;-57
2023/08/30 11:11:17;;;;;;;14.43;6.63;;;;;;;-143.84;62.45;44917.69;5112608;28;20851;-57